sensor_id;sensor_type;location;lat;lon;timestamp;P1;durP1;ratioP1;P2;durP2;ratioP2
67049;SDS011;53955;52.442;13.284;2022-08-01T00:02:07;4.18;;;2.60;;
67049;SDS011;53955;52.442;13.284;2022-08-01T00:04:34;3.40;;;2.50;;
67049;SDS011;53955;52.442;13.284;2022-08-01T00:07:00;3.97;;;2.35;;
67049;SDS011;53955;52.442;13.284;2022-08-01T00:09:27;3.50;;;2.50;;
67049;SDS011;53955;52.442;13.284;2022-08-01T00:11:54;5.22;;;2.78;;
67049;SDS011;53955;52.442;13.284;2022-08-01T00:14:20;3.25;;;2.55;;
67049;SDS011;53955;52.442;13.284;2022-08-01T00:16:47;4.78;;;2.65;;
67049;SDS011;53955;52.442;13.284;2022-08-01T00:19:15;4.57;;;2.58;;
67049;SDS011;53955;52.442;13.284;2022-08-01T00:21:41;4.55;;;3.00;;
67049;SDS011;53955;52.442;13.284;2022-08-01T00:24:08;4.35;;;2.83;;
67049;SDS011;53955;52.442;13.284;2022-08-01T00:26:34;4.15;;;2.95;;
67049;SDS011;53955;52.442;13.284;2022-08-01T00:29:01;3.25;;;2.38;;
67049;SDS011;53955;52.442;13.284;2022-08-01T00:31:28;3.40;;;2.60;;
67049;SDS011;53955;52.442;13.284;2022-08-01T00:33:54;4.35;;;3.45;;
67049;SDS011;53955;52.442;13.284;2022-08-01T00:36:22;5.88;;;3.08;;
67049;SDS011;53955;52.442;13.284;2022-08-01T00:38:49;3.97;;;2.72;;
67049;SDS011;53955;52.442;13.284;2022-08-01T00:41:15;5.28;;;2.85;;
67049;SDS011;53955;52.442;13.284;2022-08-01T00:43:42;4.07;;;2.83;;
67049;SDS011;53955;52.442;13.284;2022-08-01T00:46:09;5.47;;;3.03;;
67049;SDS011;53955;52.442;13.284;2022-08-01T00:48:35;5.18;;;3.00;;
67049;SDS011;53955;52.442;13.284;2022-08-01T00:51:03;7.30;;;3.30;;
67049;SDS011;53955;52.442;13.284;2022-08-01T00:53:31;4.72;;;3.03;;
67049;SDS011;53955;52.442;13.284;2022-08-01T00:55:58;5.00;;;2.97;;
67049;SDS011;53955;52.442;13.284;2022-08-01T00:58:25;4.13;;;2.88;;
67049;SDS011;53955;52.442;13.284;2022-08-01T01:00:54;4.45;;;2.78;;
67049;SDS011;53955;52.442;13.284;2022-08-01T01:03:21;5.60;;;3.03;;
67049;SDS011;53955;52.442;13.284;2022-08-01T01:05:53;5.82;;;2.97;;
67049;SDS011;53955;52.442;13.284;2022-08-01T01:08:27;4.55;;;3.25;;
67049;SDS011;53955;52.442;13.284;2022-08-01T01:11:01;4.07;;;2.60;;
67049;SDS011;53955;52.442;13.284;2022-08-01T01:13:35;3.60;;;2.90;;
67049;SDS011;53955;52.442;13.284;2022-08-01T01:16:08;3.80;;;2.85;;
67049;SDS011;53955;52.442;13.284;2022-08-01T01:18:41;6.35;;;3.30;;
67049;SDS011;53955;52.442;13.284;2022-08-01T01:21:13;4.85;;;2.95;;
67049;SDS011;53955;52.442;13.284;2022-08-01T01:24:13;3.83;;;2.85;;
67049;SDS011;53955;52.442;13.284;2022-08-01T01:26:52;5.10;;;3.33;;
67049;SDS011;53955;52.442;13.284;2022-08-01T01:29:25;3.80;;;3.00;;
67049;SDS011;53955;52.442;13.284;2022-08-01T01:31:57;6.25;;;3.05;;
67049;SDS011;53955;52.442;13.284;2022-08-01T01:34:42;5.00;;;3.10;;
67049;SDS011;53955;52.442;13.284;2022-08-01T01:37:12;3.53;;;2.60;;
67049;SDS011;53955;52.442;13.284;2022-08-01T01:39:42;6.10;;;2.90;;
67049;SDS011;53955;52.442;13.284;2022-08-01T01:42:09;5.32;;;2.65;;
67049;SDS011;53955;52.442;13.284;2022-08-01T01:44:37;5.03;;;2.83;;
67049;SDS011;53955;52.442;13.284;2022-08-01T01:47:05;4.97;;;3.50;;
67049;SDS011;53955;52.442;13.284;2022-08-01T01:49:33;5.10;;;3.13;;
67049;SDS011;53955;52.442;13.284;2022-08-01T01:52:00;4.28;;;2.90;;
67049;SDS011;53955;52.442;13.284;2022-08-01T01:54:29;3.55;;;2.80;;
67049;SDS011;53955;52.442;13.284;2022-08-01T01:56:58;4.10;;;3.00;;
67049;SDS011;53955;52.442;13.284;2022-08-01T01:59:27;4.60;;;3.33;;
67049;SDS011;53955;52.442;13.284;2022-08-01T02:01:58;5.32;;;3.55;;
67049;SDS011;53955;52.442;13.284;2022-08-01T02:04:28;6.00;;;2.85;;
67049;SDS011;53955;52.442;13.284;2022-08-01T02:06:57;3.90;;;3.10;;
67049;SDS011;53955;52.442;13.284;2022-08-01T02:09:24;3.90;;;2.92;;
67049;SDS011;53955;52.442;13.284;2022-08-01T02:11:53;4.88;;;3.28;;
67049;SDS011;53955;52.442;13.284;2022-08-01T02:14:22;6.32;;;3.33;;
67049;SDS011;53955;52.442;13.284;2022-08-01T02:16:49;4.43;;;3.30;;
67049;SDS011;53955;52.442;13.284;2022-08-01T02:19:18;4.63;;;3.13;;
67049;SDS011;53955;52.442;13.284;2022-08-01T02:21:46;3.53;;;2.85;;
67049;SDS011;53955;52.442;13.284;2022-08-01T02:24:17;4.38;;;3.10;;
67049;SDS011;53955;52.442;13.284;2022-08-01T02:26:50;4.40;;;3.22;;
67049;SDS011;53955;52.442;13.284;2022-08-01T02:29:21;4.15;;;3.22;;
67049;SDS011;53955;52.442;13.284;2022-08-01T02:31:50;5.40;;;3.70;;
67049;SDS011;53955;52.442;13.284;2022-08-01T02:34:21;4.60;;;3.20;;
67049;SDS011;53955;52.442;13.284;2022-08-01T02:36:49;3.95;;;3.10;;
67049;SDS011;53955;52.442;13.284;2022-08-01T02:39:18;4.72;;;3.13;;
67049;SDS011;53955;52.442;13.284;2022-08-01T02:41:48;5.35;;;3.20;;
67049;SDS011;53955;52.442;13.284;2022-08-01T02:44:20;4.93;;;3.60;;
67049;SDS011;53955;52.442;13.284;2022-08-01T02:46:51;5.85;;;3.80;;
67049;SDS011;53955;52.442;13.284;2022-08-01T02:49:21;5.43;;;3.58;;
67049;SDS011;53955;52.442;13.284;2022-08-01T02:51:51;4.20;;;3.60;;
67049;SDS011;53955;52.442;13.284;2022-08-01T02:54:20;3.92;;;3.08;;
67049;SDS011;53955;52.442;13.284;2022-08-01T02:56:48;5.55;;;3.45;;
67049;SDS011;53955;52.442;13.284;2022-08-01T02:59:18;4.13;;;3.15;;
67049;SDS011;53955;52.442;13.284;2022-08-01T03:01:49;4.93;;;3.47;;
67049;SDS011;53955;52.442;13.284;2022-08-01T03:04:17;4.93;;;3.53;;
67049;SDS011;53955;52.442;13.284;2022-08-01T03:06:47;4.40;;;3.70;;
67049;SDS011;53955;52.442;13.284;2022-08-01T03:09:14;6.68;;;3.22;;
67049;SDS011;53955;52.442;13.284;2022-08-01T03:11:43;5.07;;;3.38;;
67049;SDS011;53955;52.442;13.284;2022-08-01T03:14:11;4.82;;;3.42;;
67049;SDS011;53955;52.442;13.284;2022-08-01T03:16:40;5.43;;;3.45;;
67049;SDS011;53955;52.442;13.284;2022-08-01T03:19:11;4.82;;;3.22;;
67049;SDS011;53955;52.442;13.284;2022-08-01T03:21:38;7.30;;;3.35;;
67049;SDS011;53955;52.442;13.284;2022-08-01T03:24:08;6.18;;;3.30;;
67049;SDS011;53955;52.442;13.284;2022-08-01T03:26:36;5.30;;;3.47;;
67049;SDS011;53955;52.442;13.284;2022-08-01T03:29:06;5.20;;;3.35;;
67049;SDS011;53955;52.442;13.284;2022-08-01T03:31:37;4.80;;;3.03;;
67049;SDS011;53955;52.442;13.284;2022-08-01T03:34:07;3.97;;;3.25;;
67049;SDS011;53955;52.442;13.284;2022-08-01T03:36:34;4.28;;;2.97;;
67049;SDS011;53955;52.442;13.284;2022-08-01T03:39:10;4.65;;;3.15;;
67049;SDS011;53955;52.442;13.284;2022-08-01T03:41:39;6.05;;;3.28;;
67049;SDS011;53955;52.442;13.284;2022-08-01T03:44:10;4.90;;;3.08;;
67049;SDS011;53955;52.442;13.284;2022-08-01T03:46:42;5.53;;;2.97;;
67049;SDS011;53955;52.442;13.284;2022-08-01T03:49:21;4.82;;;3.28;;
67049;SDS011;53955;52.442;13.284;2022-08-01T03:51:51;3.88;;;2.70;;
67049;SDS011;53955;52.442;13.284;2022-08-01T03:54:21;6.90;;;2.90;;
67049;SDS011;53955;52.442;13.284;2022-08-01T03:56:50;5.18;;;3.13;;
67049;SDS011;53955;52.442;13.284;2022-08-01T03:59:18;3.70;;;2.90;;
67049;SDS011;53955;52.442;13.284;2022-08-01T04:01:46;4.38;;;3.10;;
67049;SDS011;53955;52.442;13.284;2022-08-01T04:04:14;5.07;;;3.47;;
67049;SDS011;53955;52.442;13.284;2022-08-01T04:06:40;4.35;;;3.03;;
67049;SDS011;53955;52.442;13.284;2022-08-01T04:09:09;6.28;;;2.88;;
67049;SDS011;53955;52.442;13.284;2022-08-01T04:11:38;5.15;;;3.38;;
67049;SDS011;53955;52.442;13.284;2022-08-01T04:14:04;5.75;;;3.30;;
67049;SDS011;53955;52.442;13.284;2022-08-01T04:16:31;6.90;;;3.90;;
67049;SDS011;53955;52.442;13.284;2022-08-01T04:18:58;6.25;;;3.22;;
67049;SDS011;53955;52.442;13.284;2022-08-01T04:21:25;4.93;;;3.28;;
67049;SDS011;53955;52.442;13.284;2022-08-01T04:23:53;11.05;;;3.95;;
67049;SDS011;53955;52.442;13.284;2022-08-01T04:26:21;6.22;;;3.58;;
67049;SDS011;53955;52.442;13.284;2022-08-01T04:28:51;5.53;;;3.70;;
67049;SDS011;53955;52.442;13.284;2022-08-01T04:31:19;5.97;;;3.33;;
67049;SDS011;53955;52.442;13.284;2022-08-01T04:33:50;5.97;;;3.45;;
67049;SDS011;53955;52.442;13.284;2022-08-01T04:36:19;4.50;;;3.30;;
67049;SDS011;53955;52.442;13.284;2022-08-01T04:38:50;5.60;;;3.70;;
67049;SDS011;53955;52.442;13.284;2022-08-01T04:41:21;4.65;;;3.38;;
67049;SDS011;53955;52.442;13.284;2022-08-01T04:43:49;5.00;;;3.33;;
67049;SDS011;53955;52.442;13.284;2022-08-01T04:46:19;4.95;;;3.42;;
67049;SDS011;53955;52.442;13.284;2022-08-01T04:48:46;6.97;;;3.85;;
67049;SDS011;53955;52.442;13.284;2022-08-01T04:51:14;6.78;;;3.83;;
67049;SDS011;53955;52.442;13.284;2022-08-01T04:53:42;5.57;;;3.80;;
67049;SDS011;53955;52.442;13.284;2022-08-01T04:56:10;5.43;;;3.83;;
67049;SDS011;53955;52.442;13.284;2022-08-01T04:58:38;6.55;;;3.75;;
67049;SDS011;53955;52.442;13.284;2022-08-01T05:01:06;4.68;;;3.15;;
67049;SDS011;53955;52.442;13.284;2022-08-01T05:03:33;7.05;;;3.85;;
67049;SDS011;53955;52.442;13.284;2022-08-01T05:06:00;5.78;;;3.72;;
67049;SDS011;53955;52.442;13.284;2022-08-01T05:08:27;5.15;;;3.40;;
67049;SDS011;53955;52.442;13.284;2022-08-01T05:10:53;6.57;;;3.80;;
67049;SDS011;53955;52.442;13.284;2022-08-01T05:13:20;8.90;;;3.85;;
67049;SDS011;53955;52.442;13.284;2022-08-01T05:15:47;5.93;;;4.22;;
67049;SDS011;53955;52.442;13.284;2022-08-01T05:18:14;6.05;;;3.58;;
67049;SDS011;53955;52.442;13.284;2022-08-01T05:20:41;4.95;;;3.47;;
67049;SDS011;53955;52.442;13.284;2022-08-01T05:23:08;4.45;;;3.17;;
67049;SDS011;53955;52.442;13.284;2022-08-01T05:25:34;4.60;;;3.53;;
67049;SDS011;53955;52.442;13.284;2022-08-01T05:28:01;5.50;;;3.13;;
67049;SDS011;53955;52.442;13.284;2022-08-01T05:30:27;5.05;;;3.30;;
67049;SDS011;53955;52.442;13.284;2022-08-01T05:32:54;5.68;;;3.22;;
67049;SDS011;53955;52.442;13.284;2022-08-01T05:35:22;4.82;;;3.20;;
67049;SDS011;53955;52.442;13.284;2022-08-01T05:37:48;5.20;;;3.30;;
67049;SDS011;53955;52.442;13.284;2022-08-01T05:40:15;4.47;;;3.20;;
67049;SDS011;53955;52.442;13.284;2022-08-01T05:42:42;5.10;;;3.10;;
67049;SDS011;53955;52.442;13.284;2022-08-01T05:45:09;4.45;;;2.97;;
67049;SDS011;53955;52.442;13.284;2022-08-01T05:47:36;6.13;;;3.20;;
67049;SDS011;53955;52.442;13.284;2022-08-01T05:50:03;3.58;;;2.75;;
67049;SDS011;53955;52.442;13.284;2022-08-01T05:52:31;8.50;;;4.43;;
67049;SDS011;53955;52.442;13.284;2022-08-01T05:54:58;5.72;;;2.65;;
67049;SDS011;53955;52.442;13.284;2022-08-01T05:57:24;4.32;;;2.83;;
67049;SDS011;53955;52.442;13.284;2022-08-01T05:59:51;4.80;;;2.88;;
67049;SDS011;53955;52.442;13.284;2022-08-01T06:02:17;5.05;;;3.50;;
67049;SDS011;53955;52.442;13.284;2022-08-01T06:04:44;5.00;;;3.03;;
67049;SDS011;53955;52.442;13.284;2022-08-01T06:07:11;4.40;;;3.10;;
67049;SDS011;53955;52.442;13.284;2022-08-01T06:09:38;3.67;;;2.67;;
67049;SDS011;53955;52.442;13.284;2022-08-01T06:12:05;4.00;;;2.80;;
67049;SDS011;53955;52.442;13.284;2022-08-01T06:14:32;4.20;;;2.60;;
67049;SDS011;53955;52.442;13.284;2022-08-01T06:16:58;5.15;;;2.78;;
67049;SDS011;53955;52.442;13.284;2022-08-01T06:19:25;5.78;;;2.35;;
67049;SDS011;53955;52.442;13.284;2022-08-01T06:21:52;5.10;;;2.50;;
67049;SDS011;53955;52.442;13.284;2022-08-01T06:24:18;11.80;;;3.00;;
67049;SDS011;53955;52.442;13.284;2022-08-01T06:26:46;3.67;;;2.50;;
67049;SDS011;53955;52.442;13.284;2022-08-01T06:29:13;3.42;;;2.03;;
67049;SDS011;53955;52.442;13.284;2022-08-01T06:31:39;3.00;;;1.98;;
67049;SDS011;53955;52.442;13.284;2022-08-01T06:34:06;3.05;;;2.15;;
67049;SDS011;53955;52.442;13.284;2022-08-01T06:36:32;4.45;;;2.30;;
67049;SDS011;53955;52.442;13.284;2022-08-01T06:38:59;3.35;;;2.15;;
67049;SDS011;53955;52.442;13.284;2022-08-01T06:41:25;5.03;;;1.85;;
67049;SDS011;53955;52.442;13.284;2022-08-01T06:43:53;4.20;;;2.00;;
67049;SDS011;53955;52.442;13.284;2022-08-01T06:46:20;3.17;;;1.90;;
67049;SDS011;53955;52.442;13.284;2022-08-01T06:48:46;5.10;;;2.05;;
67049;SDS011;53955;52.442;13.284;2022-08-01T06:51:13;2.92;;;1.80;;
67049;SDS011;53955;52.442;13.284;2022-08-01T06:53:42;3.38;;;1.92;;
67049;SDS011;53955;52.442;13.284;2022-08-01T06:56:09;3.10;;;2.08;;
67049;SDS011;53955;52.442;13.284;2022-08-01T06:58:36;3.38;;;1.75;;
67049;SDS011;53955;52.442;13.284;2022-08-01T07:01:04;3.45;;;2.10;;
67049;SDS011;53955;52.442;13.284;2022-08-01T07:03:31;3.28;;;2.15;;
67049;SDS011;53955;52.442;13.284;2022-08-01T07:05:58;3.03;;;2.15;;
67049;SDS011;53955;52.442;13.284;2022-08-01T07:08:25;2.83;;;1.80;;
67049;SDS011;53955;52.442;13.284;2022-08-01T07:10:51;3.42;;;2.30;;
67049;SDS011;53955;52.442;13.284;2022-08-01T07:13:18;2.88;;;1.85;;
67049;SDS011;53955;52.442;13.284;2022-08-01T07:15:49;3.92;;;2.15;;
67049;SDS011;53955;52.442;13.284;2022-08-01T07:18:17;3.28;;;2.00;;
67049;SDS011;53955;52.442;13.284;2022-08-01T07:20:45;3.15;;;2.03;;
67049;SDS011;53955;52.442;13.284;2022-08-01T07:23:12;3.50;;;1.90;;
67049;SDS011;53955;52.442;13.284;2022-08-01T07:25:38;3.53;;;2.00;;
67049;SDS011;53955;52.442;13.284;2022-08-01T07:28:05;2.80;;;1.92;;
67049;SDS011;53955;52.442;13.284;2022-08-01T07:30:32;4.45;;;2.13;;
67049;SDS011;53955;52.442;13.284;2022-08-01T07:32:58;4.70;;;2.50;;
67049;SDS011;53955;52.442;13.284;2022-08-01T07:35:26;3.42;;;2.25;;
67049;SDS011;53955;52.442;13.284;2022-08-01T07:37:53;6.45;;;2.20;;
67049;SDS011;53955;52.442;13.284;2022-08-01T07:40:19;4.53;;;2.47;;
67049;SDS011;53955;52.442;13.284;2022-08-01T07:42:46;2.97;;;2.10;;
67049;SDS011;53955;52.442;13.284;2022-08-01T07:45:13;3.38;;;2.30;;
67049;SDS011;53955;52.442;13.284;2022-08-01T07:47:39;2.60;;;1.65;;
67049;SDS011;53955;52.442;13.284;2022-08-01T07:50:06;3.17;;;2.30;;
67049;SDS011;53955;52.442;13.284;2022-08-01T07:52:35;4.13;;;2.30;;
67049;SDS011;53955;52.442;13.284;2022-08-01T07:55:02;3.70;;;2.13;;
67049;SDS011;53955;52.442;13.284;2022-08-01T07:57:28;3.70;;;2.25;;
67049;SDS011;53955;52.442;13.284;2022-08-01T07:59:55;3.83;;;2.20;;
67049;SDS011;53955;52.442;13.284;2022-08-01T08:02:22;4.25;;;2.33;;
67049;SDS011;53955;52.442;13.284;2022-08-01T08:04:48;3.35;;;2.15;;
67049;SDS011;53955;52.442;13.284;2022-08-01T08:07:15;3.75;;;2.50;;
67049;SDS011;53955;52.442;13.284;2022-08-01T08:09:43;3.45;;;2.58;;
67049;SDS011;53955;52.442;13.284;2022-08-01T08:12:09;4.10;;;2.75;;
67049;SDS011;53955;52.442;13.284;2022-08-01T08:14:37;5.05;;;3.22;;
67049;SDS011;53955;52.442;13.284;2022-08-01T08:17:03;6.15;;;3.70;;
67049;SDS011;53955;52.442;13.284;2022-08-01T08:19:30;5.13;;;3.30;;
67049;SDS011;53955;52.442;13.284;2022-08-01T08:21:58;4.65;;;3.28;;
67049;SDS011;53955;52.442;13.284;2022-08-01T08:24:25;4.80;;;3.20;;
67049;SDS011;53955;52.442;13.284;2022-08-01T08:26:54;4.05;;;2.67;;
67049;SDS011;53955;52.442;13.284;2022-08-01T08:29:23;2.83;;;2.03;;
67049;SDS011;53955;52.442;13.284;2022-08-01T08:31:51;4.32;;;2.50;;
67049;SDS011;53955;52.442;13.284;2022-08-01T08:34:18;5.15;;;2.30;;
67049;SDS011;53955;52.442;13.284;2022-08-01T08:36:45;2.95;;;1.77;;
67049;SDS011;53955;52.442;13.284;2022-08-01T08:39:11;2.67;;;1.80;;
67049;SDS011;53955;52.442;13.284;2022-08-01T08:41:38;2.55;;;1.75;;
67049;SDS011;53955;52.442;13.284;2022-08-01T08:44:06;2.45;;;1.33;;
67049;SDS011;53955;52.442;13.284;2022-08-01T08:46:34;1.52;;;1.00;;
67049;SDS011;53955;52.442;13.284;2022-08-01T08:49:07;1.98;;;1.08;;
67049;SDS011;53955;52.442;13.284;2022-08-01T08:51:35;1.88;;;1.15;;
67049;SDS011;53955;52.442;13.284;2022-08-01T08:54:04;1.45;;;0.90;;
67049;SDS011;53955;52.442;13.284;2022-08-01T08:56:32;1.42;;;0.88;;
67049;SDS011;53955;52.442;13.284;2022-08-01T08:59:00;1.70;;;1.10;;
67049;SDS011;53955;52.442;13.284;2022-08-01T09:01:29;1.50;;;0.77;;
67049;SDS011;53955;52.442;13.284;2022-08-01T09:03:58;1.77;;;1.10;;
67049;SDS011;53955;52.442;13.284;2022-08-01T09:06:25;2.20;;;1.25;;
67049;SDS011;53955;52.442;13.284;2022-08-01T09:08:53;1.83;;;1.10;;
67049;SDS011;53955;52.442;13.284;2022-08-01T09:11:19;2.03;;;1.05;;
67049;SDS011;53955;52.442;13.284;2022-08-01T09:14:00;1.38;;;0.90;;
67049;SDS011;53955;52.442;13.284;2022-08-01T09:16:30;1.80;;;1.23;;
67049;SDS011;53955;52.442;13.284;2022-08-01T09:19:05;2.45;;;1.20;;
67049;SDS011;53955;52.442;13.284;2022-08-01T09:21:33;1.83;;;1.30;;
67049;SDS011;53955;52.442;13.284;2022-08-01T09:23:59;2.70;;;1.52;;
67049;SDS011;53955;52.442;13.284;2022-08-01T09:26:28;2.13;;;1.42;;
67049;SDS011;53955;52.442;13.284;2022-08-01T09:28:56;2.33;;;1.10;;
67049;SDS011;53955;52.442;13.284;2022-08-01T09:31:24;1.98;;;1.35;;
67049;SDS011;53955;52.442;13.284;2022-08-01T09:33:55;1.67;;;1.20;;
67049;SDS011;53955;52.442;13.284;2022-08-01T09:36:23;1.92;;;1.33;;
67049;SDS011;53955;52.442;13.284;2022-08-01T09:38:51;2.40;;;1.20;;
67049;SDS011;53955;52.442;13.284;2022-08-01T09:41:28;3.08;;;1.10;;
67049;SDS011;53955;52.442;13.284;2022-08-01T09:43:56;1.40;;;1.00;;
67049;SDS011;53955;52.442;13.284;2022-08-01T09:46:23;2.38;;;1.23;;
67049;SDS011;53955;52.442;13.284;2022-08-01T09:48:59;2.97;;;1.00;;
67049;SDS011;53955;52.442;13.284;2022-08-01T09:51:30;1.60;;;1.20;;
67049;SDS011;53955;52.442;13.284;2022-08-01T09:53:58;2.03;;;1.15;;
67049;SDS011;53955;52.442;13.284;2022-08-01T09:56:25;3.30;;;1.13;;
67049;SDS011;53955;52.442;13.284;2022-08-01T09:58:53;1.58;;;0.90;;
67049;SDS011;53955;52.442;13.284;2022-08-01T10:01:21;2.25;;;1.10;;
67049;SDS011;53955;52.442;13.284;2022-08-01T10:06:42;2.13;;;1.20;;
67049;SDS011;53955;52.442;13.284;2022-08-01T10:09:10;1.40;;;1.10;;
67049;SDS011;53955;52.442;13.284;2022-08-01T10:11:38;4.95;;;2.08;;
67049;SDS011;53955;52.442;13.284;2022-08-01T10:14:06;1.90;;;1.30;;
67049;SDS011;53955;52.442;13.284;2022-08-01T10:16:33;2.20;;;1.25;;
67049;SDS011;53955;52.442;13.284;2022-08-01T10:19:01;5.80;;;2.40;;
67049;SDS011;53955;52.442;13.284;2022-08-01T10:21:28;3.33;;;1.75;;
67049;SDS011;53955;52.442;13.284;2022-08-01T10:23:59;1.35;;;0.90;;
67049;SDS011;53955;52.442;13.284;2022-08-01T10:26:27;2.05;;;1.30;;
67049;SDS011;53955;52.442;13.284;2022-08-01T10:28:57;3.70;;;1.65;;
67049;SDS011;53955;52.442;13.284;2022-08-01T10:31:24;4.38;;;2.17;;
67049;SDS011;53955;52.442;13.284;2022-08-01T10:33:52;2.97;;;1.45;;
67049;SDS011;53955;52.442;13.284;2022-08-01T10:36:19;2.72;;;1.10;;
67049;SDS011;53955;52.442;13.284;2022-08-01T10:38:48;1.48;;;1.00;;
67049;SDS011;53955;52.442;13.284;2022-08-01T10:41:16;2.47;;;1.25;;
67049;SDS011;53955;52.442;13.284;2022-08-01T10:43:44;4.82;;;1.70;;
67049;SDS011;53955;52.442;13.284;2022-08-01T10:46:11;2.78;;;1.50;;
67049;SDS011;53955;52.442;13.284;2022-08-01T10:48:39;2.50;;;1.20;;
67049;SDS011;53955;52.442;13.284;2022-08-01T10:51:11;3.88;;;1.98;;
67049;SDS011;53955;52.442;13.284;2022-08-01T10:53:38;3.05;;;1.33;;
67049;SDS011;53955;52.442;13.284;2022-08-01T10:56:12;2.63;;;1.33;;
67049;SDS011;53955;52.442;13.284;2022-08-01T10:58:41;2.58;;;1.20;;
67049;SDS011;53955;52.442;13.284;2022-08-01T11:01:16;3.90;;;1.10;;
67049;SDS011;53955;52.442;13.284;2022-08-01T11:03:57;2.75;;;1.20;;
67049;SDS011;53955;52.442;13.284;2022-08-01T11:06:36;1.80;;;1.10;;
67049;SDS011;53955;52.442;13.284;2022-08-01T11:09:15;4.15;;;1.38;;
67049;SDS011;53955;52.442;13.284;2022-08-01T11:12:03;1.42;;;0.90;;
67049;SDS011;53955;52.442;13.284;2022-08-01T11:15:15;1.83;;;1.15;;
67049;SDS011;53955;52.442;13.284;2022-08-01T11:17:42;1.88;;;1.10;;
67049;SDS011;53955;52.442;13.284;2022-08-01T11:20:13;2.25;;;0.98;;
67049;SDS011;53955;52.442;13.284;2022-08-01T11:26:06;1.88;;;1.00;;
67049;SDS011;53955;52.442;13.284;2022-08-01T11:28:37;3.00;;;1.48;;
67049;SDS011;53955;52.442;13.284;2022-08-01T11:33:52;1.85;;;0.90;;
67049;SDS011;53955;52.442;13.284;2022-08-01T11:36:19;1.65;;;0.90;;
67049;SDS011;53955;52.442;13.284;2022-08-01T11:38:46;3.05;;;0.82;;
67049;SDS011;53955;52.442;13.284;2022-08-01T11:41:15;2.58;;;1.23;;
67049;SDS011;53955;52.442;13.284;2022-08-01T11:43:54;1.60;;;1.00;;
67049;SDS011;53955;52.442;13.284;2022-08-01T11:49:25;3.25;;;1.25;;
67049;SDS011;53955;52.442;13.284;2022-08-01T11:52:14;1.20;;;0.80;;
67049;SDS011;53955;52.442;13.284;2022-08-01T11:54:43;2.22;;;1.30;;
67049;SDS011;53955;52.442;13.284;2022-08-01T11:57:11;3.03;;;1.67;;
67049;SDS011;53955;52.442;13.284;2022-08-01T11:59:39;2.58;;;1.15;;
67049;SDS011;53955;52.442;13.284;2022-08-01T12:02:18;2.00;;;1.25;;
67049;SDS011;53955;52.442;13.284;2022-08-01T12:04:48;2.05;;;1.00;;
67049;SDS011;53955;52.442;13.284;2022-08-01T12:07:17;1.60;;;0.90;;
67049;SDS011;53955;52.442;13.284;2022-08-01T12:09:44;2.28;;;0.85;;
67049;SDS011;53955;52.442;13.284;2022-08-01T12:12:14;1.25;;;1.10;;
67049;SDS011;53955;52.442;13.284;2022-08-01T12:14:42;1.20;;;0.98;;
67049;SDS011;53955;52.442;13.284;2022-08-01T12:17:10;1.23;;;0.82;;
67049;SDS011;53955;52.442;13.284;2022-08-01T12:19:36;1.75;;;1.17;;
67049;SDS011;53955;52.442;13.284;2022-08-01T12:22:10;1.35;;;0.90;;
67049;SDS011;53955;52.442;13.284;2022-08-01T12:24:39;1.73;;;1.10;;
67049;SDS011;53955;52.442;13.284;2022-08-01T12:27:06;4.10;;;1.33;;
67049;SDS011;53955;52.442;13.284;2022-08-01T12:29:35;4.10;;;2.55;;
67049;SDS011;53955;52.442;13.284;2022-08-01T12:32:03;2.97;;;1.65;;
67049;SDS011;53955;52.442;13.284;2022-08-01T12:34:37;3.72;;;1.40;;
67049;SDS011;53955;52.442;13.284;2022-08-01T12:37:03;1.23;;;0.82;;
67049;SDS011;53955;52.442;13.284;2022-08-01T12:39:34;1.88;;;0.90;;
67049;SDS011;53955;52.442;13.284;2022-08-01T12:42:01;1.92;;;0.85;;
67049;SDS011;53955;52.442;13.284;2022-08-01T12:44:32;2.08;;;1.00;;
67049;SDS011;53955;52.442;13.284;2022-08-01T12:46:59;2.17;;;0.75;;
67049;SDS011;53955;52.442;13.284;2022-08-01T12:49:27;2.05;;;1.15;;
67049;SDS011;53955;52.442;13.284;2022-08-01T12:51:54;1.10;;;0.80;;
67049;SDS011;53955;52.442;13.284;2022-08-01T12:54:21;2.65;;;0.70;;
67049;SDS011;53955;52.442;13.284;2022-08-01T12:56:51;3.75;;;1.90;;
67049;SDS011;53955;52.442;13.284;2022-08-01T12:59:19;1.30;;;0.73;;
67049;SDS011;53955;52.442;13.284;2022-08-01T13:01:47;1.42;;;0.95;;
67049;SDS011;53955;52.442;13.284;2022-08-01T13:04:13;2.78;;;0.80;;
67049;SDS011;53955;52.442;13.284;2022-08-01T13:06:40;1.23;;;0.80;;
67049;SDS011;53955;52.442;13.284;2022-08-01T13:09:07;1.10;;;0.90;;
67049;SDS011;53955;52.442;13.284;2022-08-01T13:11:35;1.80;;;0.95;;
67049;SDS011;53955;52.442;13.284;2022-08-01T13:14:03;1.80;;;0.80;;
67049;SDS011;53955;52.442;13.284;2022-08-01T13:16:30;1.92;;;0.70;;
67049;SDS011;53955;52.442;13.284;2022-08-01T13:18:56;1.20;;;0.75;;
67049;SDS011;53955;52.442;13.284;2022-08-01T13:21:23;2.20;;;0.95;;
67049;SDS011;53955;52.442;13.284;2022-08-01T13:24:01;0.80;;;0.68;;
67049;SDS011;53955;52.442;13.284;2022-08-01T13:26:37;3.35;;;0.65;;
67049;SDS011;53955;52.442;13.284;2022-08-01T13:29:06;1.13;;;0.65;;
67049;SDS011;53955;52.442;13.284;2022-08-01T13:31:34;0.80;;;0.60;;
67049;SDS011;53955;52.442;13.284;2022-08-01T13:34:00;0.90;;;0.68;;
67049;SDS011;53955;52.442;13.284;2022-08-01T13:36:27;1.45;;;0.77;;
67049;SDS011;53955;52.442;13.284;2022-08-01T13:38:55;0.93;;;0.57;;
67049;SDS011;53955;52.442;13.284;2022-08-01T13:41:40;1.02;;;0.50;;
67049;SDS011;53955;52.442;13.284;2022-08-01T13:44:08;1.70;;;0.63;;
67049;SDS011;53955;52.442;13.284;2022-08-01T13:46:36;1.50;;;0.60;;
67049;SDS011;53955;52.442;13.284;2022-08-01T13:49:03;0.95;;;0.60;;
67049;SDS011;53955;52.442;13.284;2022-08-01T13:51:30;1.00;;;0.70;;
67049;SDS011;53955;52.442;13.284;2022-08-01T13:53:57;0.73;;;0.47;;
67049;SDS011;53955;52.442;13.284;2022-08-01T13:56:24;1.33;;;0.60;;
67049;SDS011;53955;52.442;13.284;2022-08-01T13:58:52;3.00;;;1.00;;
67049;SDS011;53955;52.442;13.284;2022-08-01T14:01:20;1.67;;;0.90;;
67049;SDS011;53955;52.442;13.284;2022-08-01T14:03:47;1.08;;;0.47;;
67049;SDS011;53955;52.442;13.284;2022-08-01T14:06:14;1.80;;;0.60;;
67049;SDS011;53955;52.442;13.284;2022-08-01T14:08:42;2.22;;;0.80;;
67049;SDS011;53955;52.442;13.284;2022-08-01T14:11:08;0.98;;;0.70;;
67049;SDS011;53955;52.442;13.284;2022-08-01T14:13:35;2.50;;;0.45;;
67049;SDS011;53955;52.442;13.284;2022-08-01T14:16:03;1.05;;;0.40;;
67049;SDS011;53955;52.442;13.284;2022-08-01T14:18:31;0.90;;;0.40;;
67049;SDS011;53955;52.442;13.284;2022-08-01T14:20:58;0.80;;;0.52;;
67049;SDS011;53955;52.442;13.284;2022-08-01T14:23:25;1.02;;;0.55;;
67049;SDS011;53955;52.442;13.284;2022-08-01T14:25:52;0.50;;;0.40;;
67049;SDS011;53955;52.442;13.284;2022-08-01T14:28:18;0.88;;;0.60;;
67049;SDS011;53955;52.442;13.284;2022-08-01T14:30:45;0.90;;;0.60;;
67049;SDS011;53955;52.442;13.284;2022-08-01T14:33:12;0.75;;;0.47;;
67049;SDS011;53955;52.442;13.284;2022-08-01T14:35:40;0.82;;;0.50;;
67049;SDS011;53955;52.442;13.284;2022-08-01T14:38:07;1.58;;;0.90;;
67049;SDS011;53955;52.442;13.284;2022-08-01T14:40:34;0.90;;;0.50;;
67049;SDS011;53955;52.442;13.284;2022-08-01T14:43:01;0.90;;;0.47;;
67049;SDS011;53955;52.442;13.284;2022-08-01T14:45:28;1.17;;;0.60;;
67049;SDS011;53955;52.442;13.284;2022-08-01T14:47:54;1.15;;;0.40;;
67049;SDS011;53955;52.442;13.284;2022-08-01T14:50:21;0.52;;;0.40;;
67049;SDS011;53955;52.442;13.284;2022-08-01T14:52:50;0.85;;;0.45;;
67049;SDS011;53955;52.442;13.284;2022-08-01T14:55:16;0.40;;;0.30;;